createdAt,value
2019-01-09T00:01:31.713Z,99826.98
2019-01-09T00:04:19.364Z,99835.19
2019-01-09T00:06:47.740Z,99834.72
2019-01-09T00:11:50.547Z,99833.20
2019-01-09T00:14:38.065Z,99835.55
2019-01-09T00:17:06.462Z,99839.83
2019-01-09T00:19:34.913Z,99837.27
2019-01-09T00:22:03.305Z,99846.63
2019-01-09T00:24:50.816Z,99852.36
2019-01-09T00:27:19.221Z,99856.70
2019-01-09T00:30:06.905Z,99873.19
2019-01-09T00:32:54.631Z,99861.28
2019-01-09T00:35:42.146Z,99883.66
2019-01-09T00:38:29.952Z,99878.86
2019-01-09T00:40:58.338Z,99885.80
2019-01-09T00:43:45.941Z,99889.60
2019-01-09T00:46:33.605Z,99889.60
2019-01-09T00:49:02.076Z,99895.23
2019-01-09T00:51:30.455Z,99907.45
2019-01-09T00:54:18.183Z,99894.10
2019-01-09T00:56:46.556Z,99902.80
2019-01-09T00:59:34.238Z,99906.26
2019-01-09T01:02:41.284Z,99908.52
2019-01-09T01:05:49.642Z,99921.73
2019-01-09T01:08:58.020Z,99917.34
2019-01-09T01:12:05.082Z,99927.22
2019-01-09T01:15:13.475Z,99922.52
2019-01-09T01:18:20.470Z,99933.22
2019-01-09T01:21:28.767Z,99929.88
2019-01-09T01:24:35.827Z,99933.10
2019-01-09T01:27:42.796Z,99940.91
2019-01-09T01:30:49.768Z,99952.32
2019-01-09T01:46:13.325Z,99967.82
2019-01-09T01:49:20.342Z,99971.84
2019-01-09T01:52:28.635Z,99968.34
2019-01-09T01:55:36.940Z,99979.80
2019-01-09T01:58:43.934Z,99978.61
2019-01-09T02:01:50.923Z,99990.80
2019-01-09T02:04:59.231Z,99990.10
2019-01-09T02:08:06.250Z,100002.89
2019-01-09T02:11:14.312Z,100006.42
2019-01-09T02:14:22.778Z,100011.13
2019-01-09T02:17:11.990Z,100004.47
2019-01-09T02:20:20.403Z,100009.50
2019-01-09T02:23:28.761Z,100024.29
2019-01-09T02:26:35.762Z,100015.75
2019-01-09T02:29:42.909Z,100024.70
2019-01-09T02:32:31.046Z,100037.80
2019-01-09T02:35:18.777Z,100032.34
2019-01-09T02:38:06.424Z,100051.92
2019-01-09T02:46:02.384Z,100042.38
2019-01-09T02:48:30.789Z,100045.50
2019-01-09T02:50:59.256Z,100046.09
2019-01-09T02:53:46.883Z,100047.20
2019-01-09T02:58:49.100Z,100039.55
2019-01-09T03:01:17.534Z,100049.15
2019-01-09T03:04:05.201Z,100053.80
2019-01-09T03:06:52.948Z,100045.65
2019-01-09T03:09:40.613Z,100056.94
2019-01-09T03:12:09.058Z,100056.94
2019-01-09T03:14:56.721Z,100054.42
2019-01-09T03:17:25.179Z,100057.19
2019-01-09T03:19:53.627Z,100056.83
2019-01-09T03:22:41.292Z,100062.16
2019-01-09T03:25:28.833Z,100059.72
2019-01-09T03:27:57.251Z,100061.84
2019-01-09T03:30:44.880Z,100069.28
2019-01-09T03:33:32.406Z,100076.56
2019-01-09T03:36:00.805Z,100073.19
2019-01-09T03:38:29.194Z,100069.88
2019-01-09T03:41:16.815Z,100077.20
2019-01-09T03:43:45.294Z,100071.89
2019-01-09T03:46:32.782Z,100072.27
2019-01-09T03:49:20.468Z,100075.84
2019-01-09T03:52:07.995Z,100074.67
2019-01-09T03:54:36.381Z,100078.96
2019-01-09T03:57:24.108Z,100074.29
2019-01-09T04:00:11.742Z,100083.02
2019-01-09T04:02:40.166Z,100085.42
2019-01-09T04:05:08.610Z,100078.19
2019-01-09T04:07:37.087Z,100077.27
2019-01-09T04:10:45.427Z,100087.73
2019-01-09T04:13:13.913Z,100090.75
2019-01-09T04:15:42.283Z,100086.17
2019-01-09T04:18:29.851Z,100087.98
2019-01-09T04:20:58.251Z,100087.98
2019-01-09T04:23:45.800Z,100083.69
2019-01-09T04:26:14.192Z,100087.73
2019-01-09T04:29:01.846Z,100089.62
2019-01-09T04:31:30.341Z,100088.11
2019-01-09T04:36:52.134Z,100089.13
2019-01-09T04:39:20.552Z,100095.19
2019-01-09T04:41:48.956Z,100080.33
2019-01-09T04:44:17.461Z,100093.97
2019-01-09T04:46:45.889Z,100107.80
2019-01-09T04:49:14.332Z,100102.69
2019-01-09T04:51:42.725Z,100109.50
2019-01-09T04:56:45.038Z,100114.00
2019-01-09T04:59:32.663Z,100123.51
2019-01-09T05:02:01.039Z,100113.20
2019-01-09T05:04:49.505Z,100128.67
2019-01-09T05:07:18.873Z,100128.42
2019-01-09T05:10:06.492Z,100125.95
2019-01-09T05:15:22.308Z,100131.00
2019-01-09T05:18:09.927Z,100134.48
2019-01-09T05:20:57.427Z,100119.00
2019-01-09T05:23:25.805Z,100137.13
2019-01-09T05:26:13.533Z,100139.02
2019-01-09T05:28:41.900Z,100134.77
2019-01-09T05:31:10.283Z,100140.25
2019-01-09T05:33:57.896Z,100140.20
2019-01-09T05:36:45.397Z,100154.50
2019-01-09T05:39:39.702Z,100145.87
2019-01-09T05:42:22.103Z,100159.47
2019-01-09T05:44:50.478Z,100154.13
2019-01-09T05:47:18.846Z,100159.26
2019-01-09T05:50:06.943Z,100155.82
2019-01-09T05:52:54.562Z,100157.59
2019-01-09T05:55:22.947Z,100154.26
2019-01-09T05:58:10.560Z,100160.31
2019-01-09T06:00:38.943Z,100170.24
2019-01-09T06:05:54.756Z,100165.70
2019-01-09T06:08:42.242Z,100180.89
2019-01-09T06:11:29.733Z,100179.03
2019-01-09T06:13:58.101Z,100182.25
2019-01-09T06:16:45.725Z,100182.87
2019-01-09T06:19:14.103Z,100174.61
2019-01-09T06:21:42.476Z,100187.15
2019-01-09T06:24:10.848Z,100191.23
2019-01-09T06:26:58.340Z,100188.45
2019-01-09T06:29:45.952Z,100191.41
2019-01-09T06:32:33.590Z,100186.19
2019-01-09T06:37:36.413Z,100194.13
2019-01-09T06:40:44.697Z,100192.91
2019-01-09T06:43:13.065Z,100206.87
2019-01-09T06:46:00.560Z,100200.27
2019-01-09T06:48:28.933Z,100206.03
2019-01-09T06:50:57.309Z,100205.95
2019-01-09T06:53:25.727Z,100213.16
2019-01-09T06:56:13.311Z,100212.93
2019-01-09T06:59:33.587Z,100215.54
2019-01-09T07:01:51.706Z,100224.39
2019-01-09T07:04:20.077Z,100230.80
2019-01-09T07:07:07.573Z,100234.14
2019-01-09T07:09:35.942Z,100230.86
2019-01-09T07:12:04.327Z,100236.77
2019-01-09T07:14:51.815Z,100234.78
2019-01-09T07:17:20.194Z,100235.04
2019-01-09T07:20:07.877Z,100233.81
2019-01-09T07:22:55.372Z,100246.73
2019-01-09T07:25:23.741Z,100251.38
2019-01-09T07:28:11.364Z,100257.79
2019-01-09T07:30:39.741Z,100253.66
2019-01-09T07:33:08.123Z,100250.75
2019-01-09T07:35:55.875Z,100257.27
2019-01-09T07:38:24.246Z,100260.05
2019-01-09T07:41:11.967Z,100254.84
2019-01-09T07:46:27.777Z,100268.73
2019-01-09T07:48:56.145Z,100269.98
2019-01-09T07:51:24.520Z,100282.61
2019-01-09T07:53:52.896Z,100287.95
2019-01-09T07:56:40.518Z,100286.44
2019-01-09T07:59:08.888Z,100283.65
2019-01-09T08:01:37.271Z,100285.15
2019-01-09T08:04:05.647Z,100289.83
2019-01-09T08:06:34.338Z,100292.02
2019-01-09T08:09:36.152Z,100291.81
2019-01-09T08:11:52.075Z,100292.09
2019-01-09T08:14:39.633Z,100293.77
2019-01-09T08:17:08.012Z,100298.99
2019-01-09T08:19:36.378Z,100294.97
2019-01-09T08:22:04.752Z,100300.44
2019-01-09T08:24:52.379Z,100303.97
2019-01-09T08:27:39.870Z,100311.95
2019-01-09T08:30:48.152Z,100301.97
2019-01-09T08:33:16.533Z,100314.78
2019-01-09T08:35:44.902Z,100321.54
2019-01-09T08:38:13.282Z,100321.66
2019-01-09T08:41:00.770Z,100332.81
2019-01-09T08:43:48.403Z,100337.11
2019-01-09T08:46:36.019Z,100345.81
2019-01-09T08:49:23.758Z,100345.63
2019-01-09T08:51:52.130Z,100355.37
2019-01-09T08:54:39.625Z,100355.03
2019-01-09T08:57:07.995Z,100361.40
2019-01-09T08:59:36.385Z,100370.59
2019-01-09T09:02:04.753Z,100369.80
2019-01-09T09:04:33.135Z,100370.56
2019-01-09T09:07:01.503Z,100374.67
2019-01-09T09:10:09.789Z,100370.30
2019-01-09T09:12:38.169Z,100370.06
2019-01-09T09:15:46.450Z,100378.97
2019-01-09T09:18:14.833Z,100383.57
2019-01-09T09:21:02.460Z,100397.19
2019-01-09T09:23:30.838Z,100383.30
2019-01-09T09:25:59.210Z,100382.56
2019-01-09T09:28:46.839Z,100386.48
2019-01-09T09:31:34.454Z,100396.80
2019-01-09T09:34:22.084Z,100395.84
2019-01-09T09:37:09.571Z,100410.66
2019-01-09T09:39:37.948Z,100410.16
2019-01-09T09:42:25.433Z,100418.53
2019-01-09T09:44:53.813Z,100422.30
2019-01-09T09:47:22.187Z,100417.98
2019-01-09T09:49:50.556Z,100413.45
2019-01-09T09:52:18.931Z,100421.08
2019-01-09T09:54:47.309Z,100422.67
2019-01-09T09:57:15.682Z,100423.56
2019-01-09T10:00:03.312Z,100425.52
2019-01-09T10:02:31.677Z,100422.41
2019-01-09T10:05:00.268Z,100420.90
2019-01-09T10:07:30.145Z,100430.72
2019-01-09T10:09:58.531Z,100439.05
2019-01-09T10:12:26.897Z,100432.19
2019-01-09T10:14:55.283Z,100450.87
2019-01-09T10:17:43.071Z,100450.70
2019-01-09T10:20:51.357Z,100454.37
2019-01-09T10:23:19.734Z,100456.80
2019-01-09T10:25:48.112Z,100453.23
2019-01-09T10:28:35.597Z,100461.33
2019-01-09T10:34:17.344Z,100470.16
2019-01-09T10:36:45.718Z,100475.50
2019-01-09T10:39:14.089Z,100465.94
2019-01-09T10:41:42.468Z,100473.58
2019-01-09T10:44:18.657Z,100477.99
2019-01-09T10:46:40.952Z,100474.62
2019-01-09T10:49:09.316Z,100473.12
2019-01-09T10:51:37.693Z,100475.73
2019-01-09T10:56:53.505Z,100475.27
2019-01-09T10:59:21.919Z,100481.30
2019-01-09T11:02:09.537Z,100480.61
2019-01-09T11:04:57.188Z,100477.03
2019-01-09T11:07:25.612Z,100479.48
2019-01-09T11:09:53.996Z,100478.88
2019-01-09T11:12:22.412Z,100479.41
2019-01-09T11:14:50.782Z,100476.14
2019-01-09T11:17:38.471Z,100477.84
2019-01-09T11:20:46.720Z,100483.25
2019-01-09T11:23:15.091Z,100491.20
2019-01-09T11:26:02.628Z,100487.78
2019-01-09T11:28:30.998Z,100492.27
2019-01-09T11:30:59.383Z,100497.42
2019-01-09T11:33:27.789Z,100487.82
2019-01-09T11:35:56.169Z,100486.09
2019-01-09T11:38:24.552Z,100490.62
2019-01-09T11:41:12.180Z,100492.05
2019-01-09T11:43:59.795Z,100490.89
2019-01-09T11:46:28.175Z,100497.16
2019-01-09T11:48:56.542Z,100497.08
2019-01-09T11:51:24.916Z,100493.77
2019-01-09T11:54:12.539Z,100501.26
2019-01-09T11:57:00.172Z,100509.09
2019-01-09T11:59:28.565Z,100499.30
2019-01-09T12:02:21.983Z,100503.80
2019-01-09T12:04:46.295Z,100506.14
2019-01-09T12:07:14.689Z,100505.52
2019-01-09T12:12:30.501Z,100511.89
2019-01-09T12:14:58.881Z,100513.78
2019-01-09T12:17:46.394Z,100507.82
2019-01-09T12:20:54.698Z,100516.73
2019-01-09T12:23:23.068Z,100516.16
2019-01-09T12:26:10.789Z,100523.77
2019-01-09T12:28:58.279Z,100524.27
2019-01-09T12:31:26.659Z,100524.69
2019-01-09T12:33:55.028Z,100525.37
2019-01-09T12:36:42.658Z,100527.38
2019-01-09T12:39:13.298Z,100526.45
2019-01-09T12:44:34.692Z,100534.09
2019-01-09T12:47:03.391Z,100534.52
2019-01-09T12:49:31.774Z,100536.36
2019-01-09T12:54:34.445Z,100551.88
2019-01-09T12:57:22.123Z,100554.14
2019-01-09T12:59:50.551Z,100567.59
2019-01-09T13:02:18.994Z,100576.01
2019-01-09T13:07:34.839Z,100578.30
2019-01-09T13:10:22.477Z,100571.86
2019-01-09T13:13:10.108Z,100577.86
2019-01-09T13:15:38.488Z,100583.41
2019-01-09T13:18:26.108Z,100587.42
2019-01-09T13:21:13.726Z,100595.80
2019-01-09T13:23:42.105Z,100597.64
2019-01-09T13:26:10.498Z,100609.86
2019-01-09T13:28:38.880Z,100606.78
2019-01-09T13:31:07.264Z,100609.58
2019-01-09T13:33:54.761Z,100620.83
2019-01-09T13:36:23.135Z,100621.18
2019-01-09T13:39:10.779Z,100626.05
2019-01-09T13:41:39.154Z,100620.09
2019-01-09T13:44:47.442Z,100631.06
2019-01-09T13:53:17.335Z,100640.64
2019-01-09T13:55:45.706Z,100638.41
2019-01-09T13:58:14.087Z,100657.11
2019-01-09T14:00:42.463Z,100653.52
2019-01-09T14:03:30.111Z,100655.33
2019-01-09T14:06:17.818Z,100649.47
2019-01-09T14:09:05.318Z,100664.22
2019-01-09T14:11:52.979Z,100664.00
2019-01-09T14:14:21.357Z,100663.69
2019-01-09T14:16:49.737Z,100670.88
2019-01-09T14:19:18.126Z,100666.22
2019-01-09T14:21:46.549Z,100675.01
2019-01-09T14:24:22.349Z,100691.11
2019-01-09T14:27:09.892Z,100693.61
2019-01-09T14:29:38.304Z,100695.16
2019-01-09T14:32:25.928Z,100694.33
2019-01-09T14:34:54.310Z,100701.39
2019-01-09T14:37:41.975Z,100696.42
2019-01-09T14:40:50.226Z,100701.61
2019-01-09T14:46:12.983Z,100703.88
2019-01-09T14:48:41.389Z,100713.16
2019-01-09T14:56:52.121Z,100729.87
2019-01-09T14:59:39.846Z,100728.03
2019-01-09T15:05:16.545Z,100733.42
2019-01-09T15:08:04.132Z,100739.36
2019-01-09T15:10:32.660Z,100736.52
2019-01-09T15:13:20.375Z,100738.37
2019-01-09T15:15:48.761Z,100752.86
2019-01-09T15:18:36.378Z,100751.17
2019-01-09T15:21:24.001Z,100753.09
2019-01-09T15:23:52.370Z,100759.10
2019-01-09T15:26:40.036Z,100752.34
2019-01-09T15:29:27.694Z,100753.13
2019-01-09T15:32:15.310Z,100759.36
2019-01-09T15:37:37.113Z,100756.03
2019-01-09T15:40:45.503Z,100772.50
2019-01-09T15:43:33.137Z,100765.02
2019-01-09T15:46:01.518Z,100771.77
2019-01-09T15:48:49.137Z,100771.44
2019-01-09T15:51:17.787Z,100773.61
2019-01-09T15:54:05.417Z,100776.63
2019-01-09T15:59:08.955Z,100781.72
2019-01-09T16:01:57.324Z,100780.98
2019-01-09T16:04:25.698Z,100773.97
2019-01-09T16:07:13.224Z,100779.55
2019-01-09T16:09:41.600Z,100777.53
2019-01-09T16:12:29.295Z,100786.25
2019-01-09T16:14:57.693Z,100792.16
2019-01-09T16:17:45.325Z,100785.27
2019-01-09T16:20:53.610Z,100794.09
2019-01-09T16:23:21.992Z,100794.28
2019-01-09T16:25:50.438Z,100793.17
2019-01-09T16:28:18.947Z,100799.67
2019-01-09T16:31:27.246Z,100800.91
2019-01-09T16:34:14.979Z,100802.57
2019-01-09T16:37:02.472Z,100802.50
2019-01-09T16:39:50.094Z,100812.42
2019-01-09T16:42:18.529Z,100807.00
2019-01-09T16:45:06.011Z,100801.27
2019-01-09T16:47:53.507Z,100807.56
2019-01-09T16:51:01.800Z,100809.98
2019-01-09T16:53:30.242Z,100812.88
2019-01-09T16:55:58.609Z,100818.86
2019-01-09T16:58:26.988Z,100816.21
2019-01-09T17:03:49.715Z,100825.38
2019-01-09T17:08:51.811Z,100835.95
2019-01-09T17:11:20.190Z,100835.23
2019-01-09T17:14:07.816Z,100845.36
2019-01-09T17:16:36.188Z,100840.36
2019-01-09T17:19:23.814Z,100858.14
2019-01-09T17:21:52.202Z,100860.39
2019-01-09T17:24:39.866Z,100858.14
2019-01-09T17:27:08.369Z,100863.65
2019-01-09T17:29:36.798Z,100873.27
2019-01-09T17:32:45.138Z,100879.06
2019-01-09T17:35:32.621Z,100876.55
2019-01-09T17:38:01.014Z,100880.49
2019-01-09T17:40:29.452Z,100889.17
2019-01-09T17:43:16.953Z,100890.97
2019-01-09T17:45:45.350Z,100889.78
2019-01-09T17:48:13.735Z,100897.64
2019-01-09T17:50:43.885Z,100904.05
2019-01-09T17:53:12.290Z,100899.77
2019-01-09T17:56:00.158Z,100904.05
2019-01-09T17:58:47.642Z,100911.15
2019-01-09T18:01:16.035Z,100917.79
2019-01-09T18:03:44.410Z,100919.34
2019-01-09T18:06:12.836Z,100920.50
2019-01-09T18:09:00.467Z,100927.27
2019-01-09T18:11:28.880Z,100936.48
2019-01-09T18:14:16.374Z,100935.34
2019-01-09T18:16:44.753Z,100943.38
2019-01-09T18:19:32.255Z,100943.32
2019-01-09T18:22:19.868Z,100952.09
2019-01-09T18:25:07.435Z,100949.17
2019-01-09T18:27:35.860Z,100957.48
2019-01-09T18:30:44.140Z,100957.83
2019-01-09T18:33:52.515Z,100950.00
2019-01-09T18:37:00.806Z,100948.17
2019-01-09T18:40:07.819Z,100967.75
2019-01-09T18:43:14.810Z,100960.83
2019-01-09T18:46:23.284Z,100972.97
2019-01-09T18:49:31.713Z,100974.73
2019-01-09T18:52:38.724Z,100986.91
2019-01-09T18:55:48.829Z,100990.30
2019-01-09T18:58:17.265Z,100997.52
2019-01-09T19:01:04.970Z,100993.73
2019-01-09T19:03:52.640Z,100990.25
2019-01-09T19:06:21.026Z,100995.21
2019-01-09T19:08:49.558Z,101003.98
2019-01-09T19:11:37.174Z,101005.09
2019-01-09T19:14:45.469Z,101011.92
2019-01-09T19:17:33.277Z,101020.38
2019-01-09T19:22:35.685Z,101018.45
2019-01-09T19:25:25.181Z,101026.97
2019-01-09T19:28:12.817Z,101033.06
2019-01-09T19:33:15.092Z,101047.69
2019-01-09T19:35:44.761Z,101044.91
2019-01-09T19:38:13.670Z,101047.59
2019-01-09T19:40:42.094Z,101049.02
2019-01-09T19:43:10.570Z,101047.69
2019-01-09T19:46:18.881Z,101060.56
2019-01-09T19:49:06.689Z,101060.96
2019-01-09T19:52:15.032Z,101067.18
2019-01-09T19:54:43.462Z,101070.61
2019-01-09T19:57:12.045Z,101082.97
2019-01-09T20:00:00.185Z,101080.70
2019-01-09T20:02:28.550Z,101085.08
2019-01-09T20:04:56.978Z,101087.40
2019-01-09T20:07:25.412Z,101081.05
2019-01-09T20:10:13.121Z,101087.07
2019-01-09T20:12:41.626Z,101090.98
2019-01-09T20:15:50.046Z,101089.07
2019-01-09T20:18:58.274Z,101093.86
2019-01-09T20:21:45.915Z,101100.12
2019-01-09T20:24:14.370Z,101105.86
2019-01-09T20:27:01.941Z,101103.43
2019-01-09T20:29:30.381Z,101098.72
2019-01-09T20:32:18.007Z,101097.49
2019-01-09T20:34:46.511Z,101100.58
2019-01-09T20:37:14.880Z,101108.31
2019-01-09T20:42:49.913Z,101111.66
2019-01-09T20:45:58.206Z,101119.49
2019-01-09T20:48:26.619Z,101122.69
2019-01-09T20:53:28.990Z,101132.75
2019-01-09T20:56:37.344Z,101135.80
2019-01-09T21:02:13.868Z,101134.63
2019-01-09T21:04:42.305Z,101134.63
2019-01-09T21:07:30.015Z,101140.55
2019-01-09T21:09:58.416Z,101137.40
2019-01-09T21:12:26.797Z,101146.94
2019-01-09T21:15:14.420Z,101152.02
2019-01-09T21:18:02.184Z,101153.73
2019-01-09T21:20:30.501Z,101154.76
2019-01-09T21:22:58.941Z,101155.51
2019-01-09T21:28:35.437Z,101155.27
2019-01-09T21:31:03.814Z,101162.55
2019-01-09T21:33:51.592Z,101162.11
2019-01-09T21:41:53.297Z,101170.02
2019-01-09T21:44:17.954Z,101170.22
2019-01-09T21:47:05.603Z,101172.47
2019-01-09T21:49:53.225Z,101170.13
2019-01-09T21:52:21.645Z,101173.11
2019-01-09T21:55:09.237Z,101176.67
2019-01-09T21:57:56.879Z,101180.06
2019-01-09T22:00:44.635Z,101184.36
2019-01-09T22:05:51.848Z,101185.34
2019-01-09T22:08:39.598Z,101191.34
2019-01-09T22:11:08.006Z,101188.83
2019-01-09T22:13:55.511Z,101198.09
2019-01-09T22:16:24.075Z,101199.24
2019-01-09T22:18:52.513Z,101209.80
2019-01-09T22:21:40.096Z,101210.77
2019-01-09T22:24:08.475Z,101221.66
2019-01-09T22:26:56.011Z,101224.36
2019-01-09T22:29:43.703Z,101227.78
2019-01-09T22:35:46.102Z,101238.88
2019-01-09T22:38:33.656Z,101240.92
2019-01-09T22:41:02.069Z,101248.39
2019-01-09T22:43:49.768Z,101248.91
2019-01-09T22:46:18.189Z,101247.52
2019-01-09T22:49:05.719Z,101247.23
2019-01-09T22:51:34.146Z,101249.90
2019-01-09T22:54:21.673Z,101263.44
2019-01-09T22:56:50.056Z,101263.50
2019-01-09T22:59:18.734Z,101272.22
2019-01-09T23:01:47.122Z,101259.71
2019-01-09T23:06:51.145Z,101254.20
2019-01-09T23:09:19.554Z,101258.65
2019-01-09T23:11:47.921Z,101263.94
2019-01-09T23:14:35.693Z,101266.11
2019-01-09T23:17:04.067Z,101265.55
2019-01-09T23:19:32.774Z,101272.93
2019-01-09T23:22:01.211Z,101266.11
2019-01-09T23:24:29.591Z,101272.95
2019-01-09T23:29:45.439Z,101274.60
2019-01-09T23:32:33.151Z,101277.92
2019-01-09T23:35:41.557Z,101279.91
2019-01-09T23:38:29.096Z,101273.02
2019-01-09T23:40:57.477Z,101281.11
2019-01-09T23:43:25.869Z,101284.03
2019-01-09T23:46:34.803Z,101286.64
2019-01-09T23:49:04.314Z,101285.38
2019-01-09T23:51:51.945Z,101284.98
2019-01-09T23:54:20.330Z,101283.52
2019-01-09T23:56:48.700Z,101284.05
2019-01-09T23:59:17.089Z,101288.55
